sensor_id;sensor_type;location;lat;lon;timestamp;pressure;altitude;pressure_sealevel;temperature;humidity
60228;BME280;46091;46.512;6.626;2023-07-30T00:00:27;96838.41;;;24.86;59.64
60228;BME280;46091;46.512;6.626;2023-07-30T00:02:29;96843.00;;;24.86;59.90
60228;BME280;46091;46.512;6.626;2023-07-30T00:04:32;96832.47;;;24.84;59.58
60228;BME280;46091;46.512;6.626;2023-07-30T00:06:35;96837.09;;;24.84;59.71
60228;BME280;46091;46.512;6.626;2023-07-30T00:08:38;96843.28;;;24.84;59.70
60228;BME280;46091;46.512;6.626;2023-07-30T00:10:40;96847.59;;;24.85;59.74
60228;BME280;46091;46.512;6.626;2023-07-30T00:12:43;96850.31;;;24.85;59.75
60228;BME280;46091;46.512;6.626;2023-07-30T00:14:45;96841.09;;;24.86;59.77
60228;BME280;46091;46.512;6.626;2023-07-30T00:16:50;96834.09;;;24.85;59.89
60228;BME280;46091;46.512;6.626;2023-07-30T00:18:53;96830.88;;;24.83;60.02
60228;BME280;46091;46.512;6.626;2023-07-30T00:20:56;96824.66;;;24.83;59.75
60228;BME280;46091;46.512;6.626;2023-07-30T00:22:58;96816.53;;;24.83;59.83
60228;BME280;46091;46.512;6.626;2023-07-30T00:25:02;96819.25;;;24.83;59.69
60228;BME280;46091;46.512;6.626;2023-07-30T00:27:05;96818.44;;;24.82;59.89
60228;BME280;46091;46.512;6.626;2023-07-30T00:29:08;96816.84;;;24.81;59.88
60228;BME280;46091;46.512;6.626;2023-07-30T00:31:11;96823.31;;;24.80;59.76
60228;BME280;46091;46.512;6.626;2023-07-30T00:33:16;96829.81;;;24.79;59.65
60228;BME280;46091;46.512;6.626;2023-07-30T00:35:20;96828.72;;;24.80;59.79
60228;BME280;46091;46.512;6.626;2023-07-30T00:37:23;96830.59;;;24.80;59.68
60228;BME280;46091;46.512;6.626;2023-07-30T00:39:26;96827.66;;;24.81;59.55
60228;BME280;46091;46.512;6.626;2023-07-30T00:41:29;96822.25;;;24.81;59.77
60228;BME280;46091;46.512;6.626;2023-07-30T00:43:32;96830.59;;;24.80;59.70
60228;BME280;46091;46.512;6.626;2023-07-30T00:45:35;96824.41;;;24.79;59.27
60228;BME280;46091;46.512;6.626;2023-07-30T00:47:38;96824.41;;;24.79;59.41
60228;BME280;46091;46.512;6.626;2023-07-30T00:49:43;96817.09;;;24.80;59.53
60228;BME280;46091;46.512;6.626;2023-07-30T00:51:46;96815.19;;;24.80;59.69
60228;BME280;46091;46.512;6.626;2023-07-30T00:53:49;96817.91;;;24.80;59.30
60228;BME280;46091;46.512;6.626;2023-07-30T00:55:52;96826.00;;;24.80;59.47
60228;BME280;46091;46.512;6.626;2023-07-30T00:57:56;96817.91;;;24.80;59.59
60228;BME280;46091;46.512;6.626;2023-07-30T00:59:58;96823.31;;;24.80;59.45
60228;BME280;46091;46.512;6.626;2023-07-30T01:02:03;96820.34;;;24.82;59.36
60228;BME280;46091;46.512;6.626;2023-07-30T01:04:06;96810.63;;;24.81;59.37
60228;BME280;46091;46.512;6.626;2023-07-30T01:06:11;96821.16;;;24.82;59.28
60228;BME280;46091;46.512;6.626;2023-07-30T01:08:14;96822.25;;;24.81;59.30
60228;BME280;46091;46.512;6.626;2023-07-30T01:10:17;96822.50;;;24.80;59.57
60228;BME280;46091;46.512;6.626;2023-07-30T01:12:20;96823.31;;;24.80;59.40
60228;BME280;46091;46.512;6.626;2023-07-30T01:14:24;96833.06;;;24.81;59.36
60228;BME280;46091;46.512;6.626;2023-07-30T01:16:28;96843.88;;;24.81;59.52
60228;BME280;46091;46.512;6.626;2023-07-30T01:18:31;96844.94;;;24.80;59.41
60228;BME280;46091;46.512;6.626;2023-07-30T01:20:34;96842.22;;;24.80;59.76
60228;BME280;46091;46.512;6.626;2023-07-30T01:22:38;96844.41;;;24.78;59.67
60228;BME280;46091;46.512;6.626;2023-07-30T01:24:41;96856.84;;;24.79;59.62
60228;BME280;46091;46.512;6.626;2023-07-30T01:26:47;96853.31;;;24.79;59.55
60228;BME280;46091;46.512;6.626;2023-07-30T01:28:54;96862.25;;;24.79;59.57
60228;BME280;46091;46.512;6.626;2023-07-30T01:30:59;96854.41;;;24.78;59.86
60228;BME280;46091;46.512;6.626;2023-07-30T01:33:03;96853.09;;;24.75;59.89
60228;BME280;46091;46.512;6.626;2023-07-30T01:35:08;96857.97;;;24.73;59.63
60228;BME280;46091;46.512;6.626;2023-07-30T01:37:12;96853.16;;;24.70;59.93
60228;BME280;46091;46.512;6.626;2023-07-30T01:39:17;96864.50;;;24.67;59.88
60228;BME280;46091;46.512;6.626;2023-07-30T01:41:20;96867.78;;;24.64;60.15
60228;BME280;46091;46.512;6.626;2023-07-30T01:43:23;96854.81;;;24.61;60.22
60228;BME280;46091;46.512;6.626;2023-07-30T01:45:26;96860.53;;;24.59;59.92
60228;BME280;46091;46.512;6.626;2023-07-30T01:47:29;96858.09;;;24.58;60.12
60228;BME280;46091;46.512;6.626;2023-07-30T01:49:32;96848.34;;;24.57;60.32
60228;BME280;46091;46.512;6.626;2023-07-30T01:51:35;96858.63;;;24.55;60.45
60228;BME280;46091;46.512;6.626;2023-07-30T01:53:38;96841.91;;;24.53;60.64
60228;BME280;46091;46.512;6.626;2023-07-30T01:55:43;96852.72;;;24.53;60.36
60228;BME280;46091;46.512;6.626;2023-07-30T01:57:47;96856.50;;;24.52;60.57
60228;BME280;46091;46.512;6.626;2023-07-30T01:59:50;96854.91;;;24.51;60.59
60228;BME280;46091;46.512;6.626;2023-07-30T02:01:53;96859.78;;;24.49;60.21
60228;BME280;46091;46.512;6.626;2023-07-30T02:03:55;96853.84;;;24.47;60.55
60228;BME280;46091;46.512;6.626;2023-07-30T02:05:58;96863.81;;;24.46;60.61
60228;BME280;46091;46.512;6.626;2023-07-30T02:08:01;96856.81;;;24.45;60.43
60228;BME280;46091;46.512;6.626;2023-07-30T02:10:05;96859.25;;;24.47;60.36
60228;BME280;46091;46.512;6.626;2023-07-30T02:12:09;96860.88;;;24.48;60.66
60228;BME280;46091;46.512;6.626;2023-07-30T02:14:12;96855.72;;;24.46;60.60
60228;BME280;46091;46.512;6.626;2023-07-30T02:16:15;96857.63;;;24.46;60.56
60228;BME280;46091;46.512;6.626;2023-07-30T02:18:18;96860.59;;;24.44;60.56
60228;BME280;46091;46.512;6.626;2023-07-30T02:20:21;96859.00;;;24.43;60.33
60228;BME280;46091;46.512;6.626;2023-07-30T02:22:24;96858.19;;;24.43;60.49
60228;BME280;46091;46.512;6.626;2023-07-30T02:24:27;96851.16;;;24.42;60.80
60228;BME280;46091;46.512;6.626;2023-07-30T02:26:30;96844.16;;;24.41;60.44
60228;BME280;46091;46.512;6.626;2023-07-30T02:28:34;96847.94;;;24.39;60.80
60228;BME280;46091;46.512;6.626;2023-07-30T02:30:37;96841.72;;;24.39;60.99
60228;BME280;46091;46.512;6.626;2023-07-30T02:32:41;96846.34;;;24.38;60.57
60228;BME280;46091;46.512;6.626;2023-07-30T02:34:44;96854.44;;;24.38;60.71
60228;BME280;46091;46.512;6.626;2023-07-30T02:36:47;96854.72;;;24.37;60.98
60228;BME280;46091;46.512;6.626;2023-07-30T02:38:50;96844.72;;;24.37;60.68
60228;BME280;46091;46.512;6.626;2023-07-30T02:40:54;96840.41;;;24.36;61.09
60228;BME280;46091;46.512;6.626;2023-07-30T02:42:56;96843.91;;;24.37;60.70
60228;BME280;46091;46.512;6.626;2023-07-30T02:45:01;96845.81;;;24.36;60.59
60228;BME280;46091;46.512;6.626;2023-07-30T02:47:04;96846.91;;;24.35;61.12
60228;BME280;46091;46.512;6.626;2023-07-30T02:49:07;96842.31;;;24.36;61.05
60228;BME280;46091;46.512;6.626;2023-07-30T02:51:11;96849.31;;;24.37;60.74
60228;BME280;46091;46.512;6.626;2023-07-30T02:53:13;96845.81;;;24.36;60.97
60228;BME280;46091;46.512;6.626;2023-07-30T02:55:16;96845.00;;;24.36;61.05
60228;BME280;46091;46.512;6.626;2023-07-30T02:57:20;96852.03;;;24.37;60.61
60228;BME280;46091;46.512;6.626;2023-07-30T02:59:22;96853.91;;;24.36;61.05
60228;BME280;46091;46.512;6.626;2023-07-30T03:01:26;96855.00;;;24.35;61.10
60228;BME280;46091;46.512;6.626;2023-07-30T03:03:29;96853.09;;;24.36;61.22
60228;BME280;46091;46.512;6.626;2023-07-30T03:05:32;96846.91;;;24.35;60.99
60228;BME280;46091;46.512;6.626;2023-07-30T03:07:35;96843.09;;;24.36;60.94
60228;BME280;46091;46.512;6.626;2023-07-30T03:09:38;96838.50;;;24.37;61.43
60228;BME280;46091;46.512;6.626;2023-07-30T03:11:41;96842.53;;;24.39;61.27
60228;BME280;46091;46.512;6.626;2023-07-30T03:13:43;96835.53;;;24.38;61.04
60228;BME280;46091;46.512;6.626;2023-07-30T03:15:45;96835.25;;;24.40;61.17
60228;BME280;46091;46.512;6.626;2023-07-30T03:17:50;96835.53;;;24.38;61.35
60228;BME280;46091;46.512;6.626;2023-07-30T03:19:53;96835.53;;;24.38;61.18
60228;BME280;46091;46.512;6.626;2023-07-30T03:21:56;96837.13;;;24.39;61.06
60228;BME280;46091;46.512;6.626;2023-07-30T03:23:59;96836.31;;;24.39;61.47
60228;BME280;46091;46.512;6.626;2023-07-30T03:26:02;96833.91;;;24.37;61.61
60228;BME280;46091;46.512;6.626;2023-07-30T03:28:05;96830.94;;;24.39;61.37
60228;BME280;46091;46.512;6.626;2023-07-30T03:30:09;96825.00;;;24.37;61.49
60228;BME280;46091;46.512;6.626;2023-07-30T03:32:12;96824.19;;;24.36;61.35
60228;BME280;46091;46.512;6.626;2023-07-30T03:34:16;96832.31;;;24.36;61.44
60228;BME280;46091;46.512;6.626;2023-07-30T03:36:19;96840.41;;;24.36;61.51
60228;BME280;46091;46.512;6.626;2023-07-30T03:38:22;96845.00;;;24.36;61.30
60228;BME280;46091;46.512;6.626;2023-07-30T03:40:24;96853.91;;;24.36;60.94
60228;BME280;46091;46.512;6.626;2023-07-30T03:42:27;96846.06;;;24.35;61.54
60228;BME280;46091;46.512;6.626;2023-07-30T03:44:29;96847.16;;;24.34;61.31
60228;BME280;46091;46.512;6.626;2023-07-30T03:46:31;96844.19;;;24.35;61.10
60228;BME280;46091;46.512;6.626;2023-07-30T03:48:34;96845.81;;;24.36;61.38
60228;BME280;46091;46.512;6.626;2023-07-30T03:50:39;96839.84;;;24.34;61.44
60228;BME280;46091;46.512;6.626;2023-07-30T03:52:41;96840.66;;;24.35;61.54
60228;BME280;46091;46.512;6.626;2023-07-30T03:54:44;96847.44;;;24.32;61.43
60228;BME280;46091;46.512;6.626;2023-07-30T03:56:47;96845.81;;;24.31;61.31
60228;BME280;46091;46.512;6.626;2023-07-30T03:58:50;96846.63;;;24.32;61.41
60228;BME280;46091;46.512;6.626;2023-07-30T04:00:53;96855.53;;;24.32;61.64
60228;BME280;46091;46.512;6.626;2023-07-30T04:02:56;96854.72;;;24.32;61.58
60228;BME280;46091;46.512;6.626;2023-07-30T04:04:59;96853.94;;;24.31;61.44
60228;BME280;46091;46.512;6.626;2023-07-30T04:07:03;96851.22;;;24.31;61.71
60228;BME280;46091;46.512;6.626;2023-07-30T04:09:06;96852.56;;;24.29;61.21
60228;BME280;46091;46.512;6.626;2023-07-30T04:11:09;96856.63;;;24.31;61.67
60228;BME280;46091;46.512;6.626;2023-07-30T04:13:31;96857.72;;;24.30;61.37
60228;BME280;46091;46.512;6.626;2023-07-30T04:15:50;96857.16;;;24.28;61.36
60228;BME280;46091;46.512;6.626;2023-07-30T04:17:53;96859.88;;;24.28;61.80
60228;BME280;46091;46.512;6.626;2023-07-30T04:19:56;96863.38;;;24.29;61.64
60228;BME280;46091;46.512;6.626;2023-07-30T04:21:59;96867.44;;;24.31;61.32
60228;BME280;46091;46.512;6.626;2023-07-30T04:24:04;96857.72;;;24.30;61.49
60228;BME280;46091;46.512;6.626;2023-07-30T04:26:07;96857.72;;;24.30;61.38
60228;BME280;46091;46.512;6.626;2023-07-30T04:28:10;96857.16;;;24.28;61.85
60228;BME280;46091;46.512;6.626;2023-07-30T04:30:12;96861.75;;;24.28;61.52
60228;BME280;46091;46.512;6.626;2023-07-30T04:32:14;96852.03;;;24.27;61.66
60228;BME280;46091;46.512;6.626;2023-07-30T04:34:17;96846.63;;;24.27;61.86
60228;BME280;46091;46.512;6.626;2023-07-30T04:36:20;96843.13;;;24.26;62.06
60228;BME280;46091;46.512;6.626;2023-07-30T04:38:23;96859.88;;;24.28;61.95
60228;BME280;46091;46.512;6.626;2023-07-30T04:40:27;96858.25;;;24.27;62.01
60228;BME280;46091;46.512;6.626;2023-07-30T04:42:30;96860.97;;;24.27;61.71
60228;BME280;46091;46.512;6.626;2023-07-30T04:44:33;96862.84;;;24.27;61.60
60228;BME280;46091;46.512;6.626;2023-07-30T04:46:36;96863.38;;;24.29;61.71
60228;BME280;46091;46.512;6.626;2023-07-30T04:48:40;96865.81;;;24.30;62.02
60228;BME280;46091;46.512;6.626;2023-07-30T04:50:43;96874.44;;;24.32;61.68
60228;BME280;46091;46.512;6.626;2023-07-30T04:52:46;96869.03;;;24.32;61.78
60228;BME280;46091;46.512;6.626;2023-07-30T04:54:49;96877.16;;;24.32;61.72
60228;BME280;46091;46.512;6.626;2023-07-30T04:56:54;96876.34;;;24.32;62.09
60228;BME280;46091;46.512;6.626;2023-07-30T04:58:56;96871.75;;;24.32;62.16
60228;BME280;46091;46.512;6.626;2023-07-30T05:00:59;96865.25;;;24.33;62.09
60228;BME280;46091;46.512;6.626;2023-07-30T05:03:02;96869.84;;;24.33;62.30
60228;BME280;46091;46.512;6.626;2023-07-30T05:05:06;96869.03;;;24.32;61.95
60228;BME280;46091;46.512;6.626;2023-07-30T05:07:09;96871.22;;;24.30;61.91
60228;BME280;46091;46.512;6.626;2023-07-30T05:09:11;96863.66;;;24.27;61.90
60228;BME280;46091;46.512;6.626;2023-07-30T05:11:14;96858.81;;;24.24;61.95
60228;BME280;46091;46.512;6.626;2023-07-30T05:13:19;96850.72;;;24.24;61.72
60228;BME280;46091;46.512;6.626;2023-07-30T05:15:22;96854.47;;;24.23;62.18
60228;BME280;46091;46.512;6.626;2023-07-30T05:17:24;96852.31;;;24.25;62.00
60228;BME280;46091;46.512;6.626;2023-07-30T05:19:27;96861.25;;;24.26;61.71
60228;BME280;46091;46.512;6.626;2023-07-30T05:21:30;96866.13;;;24.24;61.91
60228;BME280;46091;46.512;6.626;2023-07-30T05:23:33;96862.06;;;24.21;62.10
60228;BME280;46091;46.512;6.626;2023-07-30T05:25:36;96865.03;;;24.20;62.19
60228;BME280;46091;46.512;6.626;2023-07-30T05:27:39;96858.84;;;24.19;61.89
60228;BME280;46091;46.512;6.626;2023-07-30T05:29:43;96869.63;;;24.19;61.69
60228;BME280;46091;46.512;6.626;2023-07-30T05:31:49;96858.84;;;24.19;62.12
60228;BME280;46091;46.512;6.626;2023-07-30T05:33:52;96859.63;;;24.20;61.92
60228;BME280;46091;46.512;6.626;2023-07-30T05:35:54;96866.66;;;24.21;61.92
60228;BME280;46091;46.512;6.626;2023-07-30T05:37:57;96866.38;;;24.22;62.08
60228;BME280;46091;46.512;6.626;2023-07-30T05:39:59;96870.69;;;24.23;61.79
60228;BME280;46091;46.512;6.626;2023-07-30T05:42:02;96876.63;;;24.25;61.91
60228;BME280;46091;46.512;6.626;2023-07-30T05:44:05;96873.66;;;24.27;62.27
60228;BME280;46091;46.512;6.626;2023-07-30T05:46:09;96883.38;;;24.28;61.88
60228;BME280;46091;46.512;6.626;2023-07-30T05:48:12;96886.88;;;24.28;62.03
60228;BME280;46091;46.512;6.626;2023-07-30T05:50:15;96881.75;;;24.27;62.00
60228;BME280;46091;46.512;6.626;2023-07-30T05:52:18;96882.56;;;24.27;62.05
60228;BME280;46091;46.512;6.626;2023-07-30T05:54:21;96884.75;;;24.25;62.17
60228;BME280;46091;46.512;6.626;2023-07-30T05:56:23;96893.38;;;24.27;62.41
60228;BME280;46091;46.512;6.626;2023-07-30T05:58:27;96899.88;;;24.26;62.19
60228;BME280;46091;46.512;6.626;2023-07-30T06:00:29;96903.66;;;24.25;62.41
60228;BME280;46091;46.512;6.626;2023-07-30T06:02:34;96906.34;;;24.25;62.09
60228;BME280;46091;46.512;6.626;2023-07-30T06:04:37;96909.06;;;24.25;62.45
60228;BME280;46091;46.512;6.626;2023-07-30T06:06:39;96915.53;;;24.24;62.18
60228;BME280;46091;46.512;6.626;2023-07-30T06:08:42;96911.75;;;24.25;62.16
60228;BME280;46091;46.512;6.626;2023-07-30T06:10:45;96919.84;;;24.25;62.25
60228;BME280;46091;46.512;6.626;2023-07-30T06:12:48;96921.75;;;24.25;62.44
60228;BME280;46091;46.512;6.626;2023-07-30T06:14:54;96922.84;;;24.24;62.53
60228;BME280;46091;46.512;6.626;2023-07-30T06:16:57;96931.75;;;24.24;62.46
60228;BME280;46091;46.512;6.626;2023-07-30T06:19:01;96933.38;;;24.25;62.48
60228;BME280;46091;46.512;6.626;2023-07-30T06:21:11;96934.44;;;24.24;62.11
60228;BME280;46091;46.512;6.626;2023-07-30T06:23:17;96945.25;;;24.24;62.46
60228;BME280;46091;46.512;6.626;2023-07-30T06:25:21;96946.31;;;24.23;62.15
60228;BME280;46091;46.512;6.626;2023-07-30T06:27:24;96943.91;;;24.22;62.36
60228;BME280;46091;46.512;6.626;2023-07-30T06:29:27;96939.59;;;24.21;62.39
60228;BME280;46091;46.512;6.626;2023-07-30T06:31:32;96940.66;;;24.20;62.46
60228;BME280;46091;46.512;6.626;2023-07-30T06:33:34;96937.97;;;24.20;62.42
60228;BME280;46091;46.512;6.626;2023-07-30T06:35:38;96935.25;;;24.20;62.36
60228;BME280;46091;46.512;6.626;2023-07-30T06:37:41;96939.06;;;24.19;62.37
60228;BME280;46091;46.512;6.626;2023-07-30T06:39:46;96943.66;;;24.18;62.28
60228;BME280;46091;46.512;6.626;2023-07-30T06:41:49;96945.81;;;24.16;62.44
60228;BME280;46091;46.512;6.626;2023-07-30T06:43:52;96952.31;;;24.15;62.57
60228;BME280;46091;46.512;6.626;2023-07-30T06:45:55;96956.09;;;24.14;62.27
60228;BME280;46091;46.512;6.626;2023-07-30T06:47:58;96955.53;;;24.17;62.06
60228;BME280;46091;46.512;6.626;2023-07-30T06:50:01;96969.28;;;24.21;62.43
60228;BME280;46091;46.512;6.626;2023-07-30T06:52:07;96967.13;;;24.23;62.38
60228;BME280;46091;46.512;6.626;2023-07-30T06:54:10;96970.38;;;24.25;62.17
60228;BME280;46091;46.512;6.626;2023-07-30T06:56:12;96962.53;;;24.23;62.19
60228;BME280;46091;46.512;6.626;2023-07-30T06:58:15;96961.72;;;24.23;62.25
60228;BME280;46091;46.512;6.626;2023-07-30T07:00:18;96960.38;;;24.25;62.20
60228;BME280;46091;46.512;6.626;2023-07-30T07:02:23;96958.72;;;24.29;61.69
60228;BME280;46091;46.512;6.626;2023-07-30T07:04:26;96965.78;;;24.30;62.09
60228;BME280;46091;46.512;6.626;2023-07-30T07:06:30;96972.78;;;24.31;61.77
60228;BME280;46091;46.512;6.626;2023-07-30T07:08:35;96975.50;;;24.31;61.79
60228;BME280;46091;46.512;6.626;2023-07-30T07:10:37;96965.78;;;24.30;61.86
60228;BME280;46091;46.512;6.626;2023-07-30T07:12:40;96963.06;;;24.30;62.03
60228;BME280;46091;46.512;6.626;2023-07-30T07:14:43;96960.91;;;24.32;61.84
60228;BME280;46091;46.512;6.626;2023-07-30T07:16:46;96950.09;;;24.32;61.54
60228;BME280;46091;46.512;6.626;2023-07-30T07:18:50;96955.50;;;24.32;61.58
60228;BME280;46091;46.512;6.626;2023-07-30T07:20:53;96962.50;;;24.33;61.82
60228;BME280;46091;46.512;6.626;2023-07-30T07:22:56;96960.38;;;24.35;61.44
60228;BME280;46091;46.512;6.626;2023-07-30T07:25:00;96956.59;;;24.36;61.42
60228;BME280;46091;46.512;6.626;2023-07-30T07:27:04;96961.97;;;24.36;61.17
60228;BME280;46091;46.512;6.626;2023-07-30T07:29:07;96963.59;;;24.37;61.20
60228;BME280;46091;46.512;6.626;2023-07-30T07:31:10;96961.97;;;24.36;61.49
60228;BME280;46091;46.512;6.626;2023-07-30T07:33:13;96968.19;;;24.37;61.09
60228;BME280;46091;46.512;6.626;2023-07-30T07:35:16;96965.50;;;24.37;61.11
60228;BME280;46091;46.512;6.626;2023-07-30T07:37:19;96974.41;;;24.37;60.97
60228;BME280;46091;46.512;6.626;2023-07-30T07:39:22;96972.22;;;24.39;60.89
60228;BME280;46091;46.512;6.626;2023-07-30T07:41:26;96974.94;;;24.39;61.06
60228;BME280;46091;46.512;6.626;2023-07-30T07:43:29;96970.63;;;24.38;60.67
60228;BME280;46091;46.512;6.626;2023-07-30T07:45:32;96969.81;;;24.38;60.96
60228;BME280;46091;46.512;6.626;2023-07-30T07:47:34;96978.44;;;24.40;61.05
60228;BME280;46091;46.512;6.626;2023-07-30T07:49:37;96987.34;;;24.41;60.60
60228;BME280;46091;46.512;6.626;2023-07-30T07:51:40;96978.97;;;24.42;60.70
60228;BME280;46091;46.512;6.626;2023-07-30T07:53:43;96970.34;;;24.40;60.68
60228;BME280;46091;46.512;6.626;2023-07-30T07:55:46;96973.03;;;24.40;60.59
60228;BME280;46091;46.512;6.626;2023-07-30T07:57:50;96974.94;;;24.39;60.63
60228;BME280;46091;46.512;6.626;2023-07-30T07:59:53;96982.47;;;24.43;60.12
60228;BME280;46091;46.512;6.626;2023-07-30T08:01:56;96980.59;;;24.43;59.90
60228;BME280;46091;46.512;6.626;2023-07-30T08:03:59;96977.59;;;24.45;60.10
60228;BME280;46091;46.512;6.626;2023-07-30T08:06:02;96975.69;;;24.45;59.84
60228;BME280;46091;46.512;6.626;2023-07-30T08:08:04;96979.50;;;24.44;59.94
60228;BME280;46091;46.512;6.626;2023-07-30T08:10:08;96973.28;;;24.44;59.85
60228;BME280;46091;46.512;6.626;2023-07-30T08:12:10;96969.25;;;24.41;59.49
60228;BME280;46091;46.512;6.626;2023-07-30T08:14:15;96970.06;;;24.42;59.45
60228;BME280;46091;46.512;6.626;2023-07-30T08:16:17;96970.06;;;24.42;59.36
60228;BME280;46091;46.512;6.626;2023-07-30T08:18:20;96967.88;;;24.44;59.48
60228;BME280;46091;46.512;6.626;2023-07-30T08:20:22;96968.41;;;24.46;59.67
60228;BME280;46091;46.512;6.626;2023-07-30T08:22:25;96969.22;;;24.46;59.04
60228;BME280;46091;46.512;6.626;2023-07-30T08:24:28;96965.69;;;24.46;59.38
60228;BME280;46091;46.512;6.626;2023-07-30T08:26:32;96965.69;;;24.46;59.32
60228;BME280;46091;46.512;6.626;2023-07-30T08:28:34;96971.66;;;24.48;58.78
60228;BME280;46091;46.512;6.626;2023-07-30T08:30:39;96978.41;;;24.50;59.18
60228;BME280;46091;46.512;6.626;2023-07-30T08:32:43;96975.41;;;24.52;59.23
60228;BME280;46091;46.512;6.626;2023-07-30T08:34:46;96974.31;;;24.53;58.79
60228;BME280;46091;46.512;6.626;2023-07-30T08:36:49;96973.25;;;24.54;58.99
60228;BME280;46091;46.512;6.626;2023-07-30T08:38:52;96979.16;;;24.56;58.92
60228;BME280;46091;46.512;6.626;2023-07-30T08:40:55;96977.03;;;24.58;58.76
60228;BME280;46091;46.512;6.626;2023-07-30T08:42:58;96975.94;;;24.59;58.59
60228;BME280;46091;46.512;6.626;2023-07-30T08:45:03;96980.53;;;24.58;58.89
60228;BME280;46091;46.512;6.626;2023-07-30T08:47:09;96967.53;;;24.60;58.87
60228;BME280;46091;46.512;6.626;2023-07-30T08:49:12;96980.78;;;24.62;58.50
60228;BME280;46091;46.512;6.626;2023-07-30T08:51:15;96970.47;;;24.64;58.63
60228;BME280;46091;46.512;6.626;2023-07-30T08:53:19;96982.09;;;24.64;58.90
60228;BME280;46091;46.512;6.626;2023-07-30T08:55:21;96976.94;;;24.68;58.53
60228;BME280;46091;46.512;6.626;2023-07-30T08:57:26;96975.88;;;24.69;58.50
60228;BME280;46091;46.512;6.626;2023-07-30T08:59:33;96972.09;;;24.70;58.46
60228;BME280;46091;46.512;6.626;2023-07-30T09:01:40;96965.31;;;24.73;58.45
60228;BME280;46091;46.512;6.626;2023-07-30T09:03:47;96969.63;;;24.74;58.39
60228;BME280;46091;46.512;6.626;2023-07-30T09:05:51;96967.19;;;24.72;58.62
60228;BME280;46091;46.512;6.626;2023-07-30T09:07:54;96960.72;;;24.73;58.57
60228;BME280;46091;46.512;6.626;2023-07-30T09:09:55;96967.44;;;24.76;58.40
60228;BME280;46091;46.512;6.626;2023-07-30T09:12:00;96962.84;;;24.76;58.45
60228;BME280;46091;46.512;6.626;2023-07-30T09:14:05;96963.66;;;24.77;58.61
60228;BME280;46091;46.512;6.626;2023-07-30T09:16:09;96968.25;;;24.76;58.22
60228;BME280;46091;46.512;6.626;2023-07-30T09:18:16;96967.97;;;24.78;58.72
60228;BME280;46091;46.512;6.626;2023-07-30T09:20:20;96966.06;;;24.78;58.52
60228;BME280;46091;46.512;6.626;2023-07-30T09:22:26;96965.53;;;24.76;58.45
60228;BME280;46091;46.512;6.626;2023-07-30T09:24:30;96975.28;;;24.77;58.14
60228;BME280;46091;46.512;6.626;2023-07-30T09:26:42;96967.97;;;24.78;58.36
60228;BME280;46091;46.512;6.626;2023-07-30T09:28:46;96976.59;;;24.80;58.47
60228;BME280;46091;46.512;6.626;2023-07-30T09:30:49;96978.25;;;24.81;57.94
60228;BME280;46091;46.512;6.626;2023-07-30T09:32:54;96979.56;;;24.83;58.15
60228;BME280;46091;46.512;6.626;2023-07-30T09:35:04;96978.47;;;24.84;58.09
60228;BME280;46091;46.512;6.626;2023-07-30T09:37:09;96980.09;;;24.85;58.19
60228;BME280;46091;46.512;6.626;2023-07-30T09:39:15;96975.50;;;24.86;57.70
60228;BME280;46091;46.512;6.626;2023-07-30T09:41:20;96975.22;;;24.87;57.62
60228;BME280;46091;46.512;6.626;2023-07-30T09:43:28;96977.91;;;24.87;57.63
60228;BME280;46091;46.512;6.626;2023-07-30T09:45:33;96991.16;;;24.89;57.39
60228;BME280;46091;46.512;6.626;2023-07-30T09:47:37;96989.25;;;24.89;57.29
60228;BME280;46091;46.512;6.626;2023-07-30T09:49:39;96985.75;;;24.89;57.21
60228;BME280;46091;46.512;6.626;2023-07-30T09:51:42;96978.72;;;24.88;57.02
60228;BME280;46091;46.512;6.626;2023-07-30T09:53:46;96985.75;;;24.89;57.01
60228;BME280;46091;46.512;6.626;2023-07-30T09:55:48;96980.34;;;24.89;56.56
60228;BME280;46091;46.512;6.626;2023-07-30T09:57:51;96981.66;;;24.91;56.32
60228;BME280;46091;46.512;6.626;2023-07-30T09:59:54;96979.50;;;24.93;56.26
60228;BME280;46091;46.512;6.626;2023-07-30T10:01:57;96992.47;;;24.96;55.93
60228;BME280;46091;46.512;6.626;2023-07-30T10:04:05;96993.28;;;24.97;56.03
60228;BME280;46091;46.512;6.626;2023-07-30T10:06:10;96993.00;;;24.98;55.93
60228;BME280;46091;46.512;6.626;2023-07-30T10:08:17;96997.31;;;25.00;55.39
60228;BME280;46091;46.512;6.626;2023-07-30T10:10:24;96984.59;;;25.00;55.17
60228;BME280;46091;46.512;6.626;2023-07-30T10:12:31;96990.56;;;25.02;55.07
60228;BME280;46091;46.512;6.626;2023-07-30T10:14:35;96983.25;;;25.03;54.94
60228;BME280;46091;46.512;6.626;2023-07-30T10:16:38;96991.91;;;25.05;54.88
60228;BME280;46091;46.512;6.626;2023-07-30T10:18:42;96995.44;;;25.05;54.86
60228;BME280;46091;46.512;6.626;2023-07-30T10:20:52;96989.72;;;25.07;54.34
60228;BME280;46091;46.512;6.626;2023-07-30T10:22:56;96992.16;;;25.08;54.23
60228;BME280;46091;46.512;6.626;2023-07-30T10:25:01;96987.53;;;25.09;54.43
60228;BME280;46091;46.512;6.626;2023-07-30T10:27:08;96990.78;;;25.11;54.12
60228;BME280;46091;46.512;6.626;2023-07-30T10:29:15;97002.13;;;25.13;53.68
60228;BME280;46091;46.512;6.626;2023-07-30T10:31:19;96991.28;;;25.13;54.02
60228;BME280;46091;46.512;6.626;2023-07-30T10:33:21;96998.31;;;25.14;53.54
60228;BME280;46091;46.512;6.626;2023-07-30T10:35:41;96999.97;;;25.15;53.72
60228;BME280;46091;46.512;6.626;2023-07-30T10:37:45;96994.56;;;25.15;53.51
60228;BME280;46091;46.512;6.626;2023-07-30T10:39:49;96993.47;;;25.16;53.37
60228;BME280;46091;46.512;6.626;2023-07-30T10:41:56;97000.47;;;25.17;53.10
60228;BME280;46091;46.512;6.626;2023-07-30T10:44:05;96994.78;;;25.18;52.87
60228;BME280;46091;46.512;6.626;2023-07-30T10:46:11;97001.53;;;25.21;52.40
60228;BME280;46091;46.512;6.626;2023-07-30T10:48:14;97003.13;;;25.22;52.36
60228;BME280;46091;46.512;6.626;2023-07-30T10:50:16;97003.13;;;25.22;52.30
60228;BME280;46091;46.512;6.626;2023-07-30T10:52:24;96995.03;;;25.22;51.79
60228;BME280;46091;46.512;6.626;2023-07-30T10:54:33;96998.25;;;25.24;51.90